San Diego (SAN/KSAN)

Information

Location
San Diego, CA
Local Time
06:12 / 6:12 am
GMT Time
14:12 / 2:12 pm
Gates
Unassigned
No FAA reported delays
METAR KSAN 221351Z 00000KT 10SM OVC090 13/06 A3012 RMK AO2 SLP198 T01280061
TAF KSAN 221135Z 2212/2318 VRB06KT P6SM VCSH SCT035 BKN060 FM221500 16010KT P6SM VCSH SCT025 BKN035 OVC050 FM221900 17018G30KT 4SM -SHRA BR SCT010 BKN020 OVC040 TEMPO 2300/2304 22020G40KT 1SM +SHRA BR SCT008 BKN015 FM230800 25015G30KT 4SM -SHRA BR BKN025 OVC050
  • No charts available